Boston, Massachusetts
Current Conditions -  °F | °C
As of 12:23 AM on Friday 28 Nov 2014 (Local Time) from KBOS Reporting Station
Light Snow Light Snow  
Wind Chill: 21°   Ceiling: 2000
Heat Index: 30°   Visibility: 5mi
Dew Point: 27°   Wind: 12mph
Humidity: 86%   Direction: 310°NW
Pressure: 30"   Gusts: NA
Location:  42.36°N, 71.06°W
Report Text: KBOS 280523Z 31010KT 5SM -SN BR BKN020 BKN030 OVC039 M01/M03 A3000 RMK AO2 P0000
Loading
Personal Weather Stations






























Interactive Weather Map New forecast layout! Learn more

10-Day Weather Forecast

Advertisements
Track Severe Weather on mobile